Time;durP1;ratioP1;P1;durP2;ratioP2;P2;SDS_P1;SDS_P2;PMS_P1;PMS_P2;Temp;Humidity;BMP_temperature;BMP_pressure;BME280_temperature;BME280_humidity;BME280_pressure;Samples;Min_cycle;Max_cycle;Signal;HPM_P1;HPM_P2
2023/09/04 00:04:31;;;;;;;3.58;2.22;;;;;;;15.39;80.54;101489.00;10458593;28;20048;-67
2023/09/04 00:09:34;;;;;;;2.72;2.10;;;;;;;15.52;79.85;101483.91;10445645;28;20045;-67
2023/09/04 00:14:36;;;;;;;2.92;2.13;;;;;;;15.22;81.33;101485.06;10433505;28;20060;-67
2023/09/04 00:19:38;;;;;;;2.00;1.73;;;;;;;15.60;81.21;101463.91;10488118;28;20064;-68
2023/09/04 00:24:41;;;;;;;2.38;1.85;;;;;;;15.80;80.26;101460.09;10453731;28;20049;-68
2023/09/04 00:29:43;;;;;;;2.38;2.08;;;;;;;15.88;79.84;101463.03;10445117;28;20045;-68
2023/09/04 00:34:46;;;;;;;3.22;2.10;;;;;;;15.62;81.13;101457.00;10438618;28;20506;-68
2023/09/04 00:39:49;;;;;;;2.33;1.88;;;;;;;15.89;80.28;101452.78;10483496;28;20053;-68
2023/09/04 00:44:51;;;;;;;2.58;2.05;;;;;;;15.97;79.24;101455.72;10478759;28;20037;-68
2023/09/04 00:49:54;;;;;;;3.05;1.92;;;;;;;15.66;80.54;101452.50;10486325;28;20040;-67
2023/09/04 00:54:58;;;;;;;2.33;1.70;;;;;;;15.67;81.29;101447.81;10477587;28;20141;-68
2023/09/04 01:00:05;;;;;;;2.22;2.00;;;;;;;15.98;79.67;101456.53;10428652;28;20044;-68
2023/09/04 01:05:07;;;;;;;2.10;1.90;;;;;;;15.75;79.98;101462.91;10459008;28;20048;-68
2023/09/04 01:10:12;;;;;;;2.42;2.13;;;;;;;15.85;80.24;101460.03;10453304;28;20038;-69
2023/09/04 01:15:14;;;;;;;2.05;1.83;;;;;;;15.83;79.71;101456.75;10459659;28;20044;-68
2023/09/04 01:20:28;;;;;;;3.40;1.90;;;;;;;15.75;79.81;101457.38;10455081;28;20048;-68
2023/09/04 01:25:52;;;;;;;2.78;2.20;;;;;;;15.74;80.44;101458.50;10443172;28;20389;-67
2023/09/04 01:31:04;;;;;;;2.78;2.20;;;;;;;15.46;81.38;101457.44;10442856;28;20176;-68
2023/09/04 01:36:10;;;;;;;2.08;1.88;;;;;;;15.42;81.83;101464.66;10443033;28;20056;-67
2023/09/04 01:41:12;;;;;;;2.25;1.90;;;;;;;15.56;81.42;101452.59;10442566;28;20053;-68
2023/09/04 01:46:14;;;;;;;2.90;2.05;;;;;;;15.46;80.76;101462.97;10441565;28;20038;-68
2023/09/04 01:51:17;;;;;;;3.88;2.10;;;;;;;15.17;82.79;101468.53;10444200;28;20502;-68
2023/09/04 01:56:20;;;;;;;2.15;1.92;;;;;;;15.10;82.71;101479.94;10442413;28;20040;-68
2023/09/04 02:01:22;;;;;;;2.65;2.10;;;;;;;15.48;81.65;101478.16;10442049;28;20041;-68
2023/09/04 02:06:28;;;;;;;2.88;1.90;;;;;;;15.51;81.42;101477.56;10440966;28;20065;-68
2023/09/04 02:11:31;;;;;;;2.70;1.98;;;;;;;15.49;80.54;101476.22;10436970;28;20072;-68
2023/09/04 02:16:34;;;;;;;2.38;2.13;;;;;;;15.29;81.48;101471.72;10446007;28;20048;-68
2023/09/04 02:21:36;;;;;;;2.30;1.88;;;;;;;15.25;81.09;101476.16;10440893;28;20046;-68
2023/09/04 02:26:39;;;;;;;2.40;2.20;;;;;;;15.31;80.91;101481.38;10422197;28;20041;-68
2023/09/04 02:31:42;;;;;;;2.20;2.00;;;;;;;15.36;80.94;101475.78;10450309;28;20479;-67
2023/09/04 02:36:45;;;;;;;3.08;2.28;;;;;;;15.17;80.89;101479.56;10453565;28;20049;-67
2023/09/04 02:41:47;;;;;;;3.28;2.08;;;;;;;15.19;82.09;101483.69;10442554;28;20041;-67
2023/09/04 02:46:50;;;;;;;2.67;2.30;;;;;;;15.23;81.03;101473.69;10457103;28;20041;-67
2023/09/04 02:51:52;;;;;;;3.50;2.30;;;;;;;15.06;81.71;101476.91;10469381;28;20163;-67
2023/09/04 02:56:54;;;;;;;2.40;2.15;;;;;;;15.38;80.84;101478.25;10431072;28;20049;-67
2023/09/04 03:01:56;;;;;;;4.60;2.75;;;;;;;15.48;80.41;101469.03;10458209;28;20038;-67
2023/09/04 03:06:59;;;;;;;2.92;2.40;;;;;;;15.50;80.47;101462.06;10448275;28;20057;-67
2023/09/04 03:12:02;;;;;;;2.40;2.20;;;;;;;15.55;80.14;101458.41;10407219;28;20042;-67
2023/09/04 03:17:05;;;;;;;7.03;2.60;;;;;;;15.59;79.83;101453.97;10444353;28;20041;-68
2023/09/04 03:22:09;;;;;;;3.53;2.50;;;;;;;15.35;81.26;101457.53;10443901;28;20476;-67
2023/09/04 03:27:11;;;;;;;4.53;2.38;;;;;;;15.32;81.52;101466.44;10447547;28;20038;-67
2023/09/04 03:32:14;;;;;;;4.68;2.53;;;;;;;15.91;79.74;101470.72;10430848;28;20053;-67
2023/09/04 03:37:16;;;;;;;2.95;2.40;;;;;;;16.80;76.76;101481.09;10440122;28;20041;-67
2023/09/04 03:42:19;;;;;;;3.22;2.28;;;;;;;16.90;75.65;101486.47;10452200;28;20049;-68
2023/09/04 03:47:21;;;;;;;3.35;2.20;;;;;;;17.24;74.42;101485.31;10445286;28;20049;-67
2023/09/04 03:52:28;;;;;;;2.83;2.50;;;;;;;17.67;72.15;101486.69;10446588;28;20381;-68
2023/09/04 03:57:30;;;;;;;;;;;;;;;18.02;71.45;101487.13;10445681;28;20057;-68
2023/09/04 04:02:33;;;;;;;4.05;2.17;;;;;;;17.78;71.93;101479.84;10444821;28;19928;-68
2023/09/04 04:07:35;;;;;;;5.80;2.67;;;;;;;17.86;71.74;101480.25;10450255;28;20407;-68
2023/09/04 04:12:38;;;;;;;3.90;2.53;;;;;;;18.24;70.64;101484.41;10444558;28;20046;-67
2023/09/04 04:17:40;;;;;;;3.33;2.60;;;;;;;18.48;70.08;101480.53;10447550;28;20503;-67
2023/09/04 04:22:42;;;;;;;3.13;2.60;;;;;;;18.87;68.70;101474.31;10444333;28;20049;-68
2023/09/04 04:27:45;;;;;;;3.50;2.70;;;;;;;19.12;68.19;101479.25;10443244;28;20034;-67
2023/09/04 04:32:49;;;;;;;5.18;3.15;;;;;;;19.48;66.60;101487.47;10444696;28;20067;-68
2023/09/04 04:37:53;;;;;;;5.32;2.67;;;;;;;19.83;65.57;101498.75;10456867;28;20040;-68
2023/09/04 04:42:56;;;;;;;4.78;2.97;;;;;;;19.96;64.66;101508.97;10442070;28;20459;-68
2023/09/04 04:48:00;;;;;;;3.55;2.72;;;;;;;20.38;63.65;101503.78;10446072;28;20053;-68
2023/09/04 04:53:03;;;;;;;4.72;2.83;;;;;;;20.55;63.50;101511.38;10448517;28;20033;-67
2023/09/04 04:58:05;;;;;;;4.95;3.20;;;;;;;20.71;62.84;101518.13;10443817;28;20065;-67
2023/09/04 05:03:08;;;;;;;2.95;2.58;;;;;;;20.96;61.33;101516.44;10441663;28;20500;-68
2023/09/04 05:08:11;;;;;;;4.68;3.05;;;;;;;21.42;60.84;101512.94;10440121;28;20073;-67
2023/09/04 05:13:15;;;;;;;3.25;2.55;;;;;;;21.77;59.85;101513.63;10426720;28;20629;-68
2023/09/04 05:18:18;;;;;;;4.63;2.70;;;;;;;22.54;56.93;101509.53;10417206;28;20177;-68
2023/09/04 05:23:21;;;;;;;2.65;2.40;;;;;;;22.64;57.00;101529.88;10414326;28;20038;-68
2023/09/04 05:28:23;;;;;;;3.67;2.40;;;;;;;23.00;56.55;101521.69;10409881;28;20046;-68
2023/09/04 05:33:25;;;;;;;10.13;7.97;;;;;;;23.48;54.54;101519.38;10451800;28;20045;-68
2023/09/04 05:38:27;;;;;;;5.05;2.42;;;;;;;23.46;54.75;101517.75;10456210;28;20049;-68
2023/09/04 05:43:29;;;;;;;2.42;2.22;;;;;;;23.16;54.30;101525.50;10443513;28;20060;-68
2023/09/04 05:48:35;;;;;;;2.35;2.10;;;;;;;23.29;54.27;101519.94;10443533;28;20048;-68
2023/09/04 05:53:37;;;;;;;1.90;1.80;;;;;;;23.52;53.12;101526.75;10441698;28;20045;-68
2023/09/04 05:58:43;;;;;;;2.97;2.55;;;;;;;23.57;53.16;101534.94;10442577;28;20034;-68
2023/09/04 06:03:46;;;;;;;5.35;1.92;;;;;;;23.87;52.11;101538.38;10442756;28;20052;-68
2023/09/04 06:08:48;;;;;;;1.98;1.70;;;;;;;23.82;51.36;101549.81;10441418;28;20038;-68
2023/09/04 06:13:50;;;;;;;2.10;1.65;;;;;;;23.96;51.05;101557.91;10442696;28;20047;-68
2023/09/04 06:18:52;;;;;;;2.03;1.58;;;;;;;23.87;50.99;101557.19;10442521;28;20049;-68
2023/09/04 06:23:55;;;;;;;2.38;1.77;;;;;;;24.61;48.30;101558.78;10428285;28;20038;-67
2023/09/04 06:28:58;;;;;;;1.88;1.60;;;;;;;25.22;46.14;101558.63;10401023;28;20053;-67
2023/09/04 06:34:03;;;;;;;2.25;1.80;;;;;;;25.37;46.17;101559.84;10399797;28;20053;-68
2023/09/04 06:39:06;;;;;;;3.17;1.55;;;;;;;25.23;43.80;101565.88;10400681;28;20050;-68
2023/09/04 06:44:08;;;;;;;1.90;1.10;;;;;;;25.36;43.69;101561.00;10400628;28;20061;-67
2023/09/04 06:49:10;;;;;;;2.05;1.27;;;;;;;23.77;47.24;101564.88;10416333;28;20042;-68
2023/09/04 06:54:12;;;;;;;1.38;1.02;;;;;;;24.73;46.13;101564.38;10400819;28;20046;-67
2023/09/04 06:59:15;;;;;;;2.55;1.10;;;;;;;24.40;46.60;101547.72;10400832;28;20049;-67
2023/09/04 07:04:17;;;;;;;1.40;1.30;;;;;;;25.95;43.47;101552.56;10400917;28;20065;-67
2023/09/04 07:09:20;;;;;;;2.03;1.10;;;;;;;26.20;41.96;101546.69;10400006;28;20041;-68
2023/09/04 07:14:22;;;;;;;3.08;1.20;;;;;;;25.78;42.35;101545.28;10399719;28;20492;-68
2023/09/04 07:19:24;;;;;;;2.67;0.88;;;;;;;25.68;42.10;101537.38;10400387;28;20342;-68
2023/09/04 07:24:27;;;;;;;1.17;1.08;;;;;;;24.01;45.65;101536.03;10398511;28;20034;-67
2023/09/04 07:29:29;;;;;;;2.22;1.00;;;;;;;24.13;45.38;101542.84;10403128;28;20045;-67
2023/09/04 07:34:31;;;;;;;1.40;1.10;;;;;;;24.47;46.17;101550.78;10403639;28;20059;-68
2023/09/04 07:39:34;;;;;;;1.80;0.90;;;;;;;25.27;44.15;101566.78;10406938;28;20049;-68
2023/09/04 07:44:37;;;;;;;1.45;1.13;;;;;;;26.95;40.42;101558.50;10407070;28;20046;-67
2023/09/04 07:49:39;;;;;;;2.53;1.20;;;;;;;26.84;40.64;101567.91;10406422;28;20049;-67
2023/09/04 07:54:42;;;;;;;3.72;1.20;;;;;;;25.79;42.78;101571.41;10409752;28;20041;-67
2023/09/04 07:59:45;;;;;;;1.33;1.23;;;;;;;26.68;41.42;101560.31;10406537;28;20049;-67
2023/09/04 08:04:47;;;;;;;2.50;1.25;;;;;;;27.62;40.07;101566.69;10409355;28;20049;-67
2023/09/04 08:09:49;;;;;;;1.40;1.10;;;;;;;27.31;40.73;101562.88;10421121;28;20045;-67
2023/09/04 08:14:52;;;;;;;4.65;1.50;;;;;;;27.25;40.11;101564.38;10405169;28;20034;-67
2023/09/04 08:19:54;;;;;;;4.55;1.52;;;;;;;27.51;39.86;101571.28;10455231;28;20051;-67
2023/09/04 08:24:56;;;;;;;2.45;1.20;;;;;;;27.32;40.23;101566.50;10460473;28;20052;-67
2023/09/04 08:29:58;;;;;;;3.10;1.50;;;;;;;26.84;41.18;101571.53;10446458;28;20052;-67
2023/09/04 08:35:01;;;;;;;4.22;1.50;;;;;;;26.43;42.41;101578.66;10456741;28;20051;-67
2023/09/04 08:40:05;;;;;;;2.65;1.08;;;;;;;25.33;43.74;101581.38;10486721;28;20057;-67
2023/09/04 08:45:09;;;;;;;6.07;1.50;;;;;;;24.90;44.93;101575.31;10486226;28;20056;-67
2023/09/04 08:50:12;;;;;;;3.90;1.70;;;;;;;24.85;44.93;101578.38;10486149;28;20040;-67
2023/09/04 08:55:14;;;;;;;2.10;1.30;;;;;;;26.14;42.39;101563.06;10486200;28;20044;-67
2023/09/04 09:00:17;;;;;;;3.22;1.80;;;;;;;25.07;46.15;101557.38;10484714;28;20152;-67
2023/09/04 09:05:20;;;;;;;2.65;1.50;;;;;;;26.20;43.53;101557.97;10485372;28;20060;-67
2023/09/04 09:10:23;;;;;;;1.90;1.20;;;;;;;25.54;44.45;101563.13;10484001;28;20045;-68
2023/09/04 09:15:26;;;;;;;4.72;1.50;;;;;;;23.36;48.37;101560.19;10442844;28;20072;-67
2023/09/04 09:20:31;;;;;;;2.38;1.30;;;;;;;22.20;51.58;101565.69;10444091;28;20547;-67
2023/09/04 09:25:34;;;;;;;2.20;1.15;;;;;;;21.73;52.54;101576.91;10444113;28;20042;-67
2023/09/04 09:30:38;;;;;;;4.30;1.45;;;;;;;21.68;53.01;101577.06;10444022;28;20048;-67
2023/09/04 09:35:42;;;;;;;2.08;1.45;;;;;;;22.25;51.35;101568.34;10443140;28;20053;-68
2023/09/04 09:40:45;;;;;;;1.73;1.27;;;;;;;22.13;51.54;101566.25;10443258;28;20049;-68
2023/09/04 09:45:49;;;;;;;2.00;1.23;;;;;;;22.17;51.54;101558.81;10437699;28;20041;-68
2023/09/04 09:50:53;;;;;;;2.47;1.48;;;;;;;22.32;51.38;101579.78;10441962;28;20041;-67
2023/09/04 09:55:55;;;;;;;3.28;1.63;;;;;;;21.68;55.33;101569.53;10442825;28;20033;-68
2023/09/04 10:00:58;;;;;;;2.20;1.63;;;;;;;21.52;55.95;101584.34;10441951;28;20044;-68
2023/09/04 10:06:04;;;;;;;4.25;1.88;;;;;;;21.02;57.71;101582.13;10441447;28;20060;-69
2023/09/04 10:11:07;;;;;;;;;;;;;;;20.54;58.78;101577.47;10442933;28;20042;-66
2023/09/04 10:16:12;;;;;;;3.58;1.75;;;;;;;20.61;59.10;101577.81;10440426;28;19921;-68
2023/09/04 10:21:19;;;;;;;4.15;1.70;;;;;;;20.56;58.63;101574.38;10402511;28;20054;-67
2023/09/04 10:26:35;;;;;;;2.20;1.70;;;;;;;20.36;57.66;101581.34;10400985;28;20064;-68
2023/09/04 10:31:39;;;;;;;1.95;1.70;;;;;;;20.33;56.61;101579.22;10400463;28;20034;-68
2023/09/04 10:36:42;;;;;;;3.13;1.70;;;;;;;20.31;56.22;101575.94;10400244;28;20401;-68
2023/09/04 10:41:45;;;;;;;2.67;1.75;;;;;;;20.20;57.65;101575.41;10412026;28;20041;-68
2023/09/04 10:46:55;;;;;;;3.08;2.30;;;;;;;20.17;57.39;101565.72;10434136;28;20048;-67
2023/09/04 10:51:58;;;;;;;2.90;1.90;;;;;;;20.24;57.47;101572.78;10400841;28;20034;-67
2023/09/04 10:57:05;;;;;;;1.90;1.70;;;;;;;20.26;57.98;101564.91;10399436;28;20133;-67
2023/09/04 11:02:25;;;;;;;3.05;2.20;;;;;;;20.28;57.37;101557.06;10416257;28;20065;-69
2023/09/04 11:07:29;;;;;;;3.00;2.03;;;;;;;20.17;56.78;101550.97;10402298;28;20034;-67
2023/09/04 11:12:36;;;;;;;2.50;2.20;;;;;;;20.07;56.50;101545.69;10408592;28;20080;-67
2023/09/04 11:17:40;;;;;;;2.50;1.63;;;;;;;20.28;55.96;101551.47;10407678;28;20052;-67
2023/09/04 11:22:49;;;;;;;4.88;1.70;;;;;;;20.41;56.20;101559.75;10407579;28;20049;-67
2023/09/04 11:27:52;;;;;;;4.78;1.83;;;;;;;20.38;55.99;101556.75;10407200;28;20558;-67
2023/09/04 11:32:55;;;;;;;4.07;2.08;;;;;;;19.86;55.53;101545.47;10407904;28;20532;-67
2023/09/04 11:37:58;;;;;;;3.08;1.90;;;;;;;19.69;55.26;101539.81;10407931;28;20513;-67
2023/09/04 11:43:00;;;;;;;4.35;1.90;;;;;;;19.78;55.48;101535.91;10389541;28;20045;-67
2023/09/04 11:48:03;;;;;;;3.05;1.50;;;;;;;19.92;54.85;101546.13;10406642;28;20060;-68
2023/09/04 11:53:05;;;;;;;2.75;1.85;;;;;;;19.92;54.90;101555.31;10407115;28;20049;-67
2023/09/04 11:58:08;;;;;;;2.72;1.65;;;;;;;19.88;55.04;101538.41;10406628;28;20049;-68
2023/09/04 12:03:11;;;;;;;3.75;1.83;;;;;;;19.74;55.61;101534.91;10406279;28;20046;-67
2023/09/04 12:08:13;;;;;;;2.55;1.70;;;;;;;20.08;55.15;101542.56;10406234;28;20534;-68
2023/09/04 12:13:16;;;;;;;3.38;1.90;;;;;;;20.07;55.31;101560.44;10405192;28;20137;-69
2023/09/04 12:18:21;;;;;;;2.17;1.80;;;;;;;19.87;55.50;101561.84;10404620;28;20049;-68
2023/09/04 12:23:39;;;;;;;1.92;1.42;;;;;;;19.56;55.86;101567.44;10405798;28;20037;-67
2023/09/04 12:28:43;;;;;;;2.30;1.30;;;;;;;19.43;56.00;101567.47;10405063;28;20053;-68
2023/09/04 12:33:45;;;;;;;1.27;1.00;;;;;;;19.11;55.74;101574.16;10405016;28;20046;-67
2023/09/04 12:38:47;;;;;;;0.75;0.75;;;;;;;19.01;56.29;101561.31;10424018;28;20052;-68
2023/09/04 12:43:50;;;;;;;2.83;1.10;;;;;;;19.08;56.68;101555.28;10438454;28;20432;-68
2023/09/04 12:48:52;;;;;;;0.70;0.70;;;;;;;18.90;57.30;101546.00;10448931;28;20041;-68
2023/09/04 12:53:55;;;;;;;1.20;1.00;;;;;;;18.82;56.66;101544.81;10441503;28;20124;-68
2023/09/04 12:58:57;;;;;;;1.27;0.88;;;;;;;18.96;55.72;101556.69;10443276;28;20082;-68
2023/09/04 13:03:59;;;;;;;0.95;0.82;;;;;;;18.99;55.46;101569.16;10437216;28;20049;-69
2023/09/04 13:09:02;;;;;;;1.90;0.80;;;;;;;18.92;55.08;101593.81;10443373;28;20527;-69
2023/09/04 13:14:05;;;;;;;1.08;0.95;;;;;;;18.87;54.87;101627.28;10442621;28;20042;-69
2023/09/04 13:19:07;;;;;;;1.08;0.55;;;;;;;18.80;55.61;101632.47;10443389;28;20061;-68
2023/09/04 13:24:09;;;;;;;1.55;0.90;;;;;;;18.70;54.54;101625.16;10443798;28;20041;-67
2023/09/04 13:29:11;;;;;;;1.65;0.80;;;;;;;18.64;54.23;101635.56;10439991;28;20049;-68
2023/09/04 13:34:14;;;;;;;1.95;0.60;;;;;;;18.56;55.20;101646.56;10407200;28;20492;-69
2023/09/04 13:39:17;;;;;;;8.43;2.85;;;;;;;18.73;55.73;101646.78;10401428;28;20275;-69
2023/09/04 13:44:19;;;;;;;8.45;1.55;;;;;;;18.80;55.90;101624.94;10402310;28;20524;-69
2023/09/04 13:49:22;;;;;;;2.05;1.20;;;;;;;18.74;57.22;101628.13;10402344;28;20068;-69
2023/09/04 13:54:24;;;;;;;2.28;1.60;;;;;;;18.58;58.32;101624.84;10409186;28;20037;-69
2023/09/04 13:59:26;;;;;;;3.13;1.20;;;;;;;18.58;58.59;101633.19;10442337;28;20072;-68
2023/09/04 14:04:28;;;;;;;0.73;0.68;;;;;;;18.55;58.44;101640.16;10439139;28;20040;-68
2023/09/04 14:09:30;;;;;;;1.15;0.70;;;;;;;18.23;59.94;101637.53;10443078;28;20042;-67
2023/09/04 14:14:33;;;;;;;0.95;0.60;;;;;;;18.34;59.79;101638.97;10443528;28;20519;-68
2023/09/04 14:19:35;;;;;;;3.38;1.30;;;;;;;18.26;60.09;101636.91;10434853;28;20052;-69
2023/09/04 14:24:37;;;;;;;1.20;0.88;;;;;;;18.33;59.94;101632.59;10441698;28;20037;-69
2023/09/04 14:29:40;;;;;;;1.00;0.63;;;;;;;18.08;60.53;101630.31;10417445;28;20053;-69
2023/09/04 14:34:42;;;;;;;1.40;0.95;;;;;;;18.31;60.55;101622.91;10402044;28;20045;-69
2023/09/04 14:39:44;;;;;;;2.38;0.80;;;;;;;18.18;60.57;101612.63;10405460;28;20046;-70
2023/09/04 14:44:46;;;;;;;1.33;0.80;;;;;;;18.42;59.65;101609.63;10406642;28;20054;-69
2023/09/04 14:49:49;;;;;;;0.75;0.50;;;;;;;18.33;58.93;101615.91;10409334;28;20057;-69
2023/09/04 14:54:51;;;;;;;1.10;0.60;;;;;;;18.41;59.03;101619.94;10408013;28;20124;-70
2023/09/04 14:59:56;;;;;;;0.47;0.47;;;;;;;18.57;58.92;101614.84;10408258;28;20037;-68
2023/09/04 15:04:58;;;;;;;4.68;0.75;;;;;;;18.52;59.22;101623.31;10424177;28;20042;-68
2023/09/04 15:10:00;;;;;;;1.42;0.60;;;;;;;18.46;59.71;101613.44;10407039;28;20057;-68
2023/09/04 15:15:03;;;;;;;1.25;0.60;;;;;;;18.18;60.56;101624.56;10408372;28;20412;-69
2023/09/04 15:20:05;;;;;;;1.17;0.82;;;;;;;18.28;60.62;101627.13;10408694;28;20053;-68
2023/09/04 15:25:08;;;;;;;1.20;0.80;;;;;;;18.23;61.52;101621.69;10407989;28;20042;-68
2023/09/04 15:30:10;;;;;;;2.40;0.70;;;;;;;18.14;62.29;101622.72;10407711;28;20049;-69
2023/09/04 15:35:13;;;;;;;0.80;0.63;;;;;;;17.95;63.39;101626.41;10407719;28;20046;-69
2023/09/04 15:40:16;;;;;;;4.07;2.45;;;;;;;18.02;64.36;101637.09;10407617;28;20057;-69
2023/09/04 15:45:18;;;;;;;6.82;2.10;;;;;;;18.17;64.19;101628.47;10407558;28;20045;-70
2023/09/04 15:50:23;;;;;;;3.00;1.75;;;;;;;18.14;63.96;101615.19;10407497;28;20396;-69
2023/09/04 15:55:26;;;;;;;2.53;1.00;;;;;;;18.05;64.17;101603.16;10422372;28;20045;-69
2023/09/04 16:00:29;;;;;;;2.42;1.17;;;;;;;18.29;63.65;101611.28;10410032;28;20492;-70
2023/09/04 16:05:31;;;;;;;1.67;0.73;;;;;;;18.31;63.54;101604.28;10445298;28;20045;-69
2023/09/04 16:10:35;;;;;;;1.77;1.20;;;;;;;18.35;64.21;101607.25;10448001;28;20507;-68
2023/09/04 16:15:37;;;;;;;1.35;1.00;;;;;;;18.02;64.86;101628.75;10448620;28;20048;-69
2023/09/04 16:20:41;;;;;;;3.03;1.17;;;;;;;18.04;64.93;101626.50;10443509;28;20041;-69
2023/09/04 16:25:45;;;;;;;1.52;1.10;;;;;;;18.13;64.91;101618.28;10451864;28;20380;-69
2023/09/04 16:30:49;;;;;;;3.42;1.10;;;;;;;18.14;65.35;101606.03;10446961;28;20045;-69
2023/09/04 16:35:52;;;;;;;1.85;1.23;;;;;;;18.21;64.84;101612.81;10453001;28;20037;-68
2023/09/04 16:40:57;;;;;;;3.70;1.30;;;;;;;18.07;65.11;101603.69;10439945;28;20041;-68
2023/09/04 16:45:59;;;;;;;2.13;1.45;;;;;;;18.08;65.37;101592.25;10446221;28;20543;-68
2023/09/04 16:51:01;;;;;;;2.17;1.10;;;;;;;18.07;65.28;101603.69;10445670;28;20045;-68
2023/09/04 16:56:04;;;;;;;4.97;1.80;;;;;;;18.32;64.97;101607.88;10445580;28;20042;-69
2023/09/04 17:01:06;;;;;;;5.22;1.33;;;;;;;18.38;64.62;101596.34;10444026;28;20048;-68
2023/09/04 17:06:09;;;;;;;1.77;1.25;;;;;;;18.31;64.78;101600.69;10433174;28;20041;-68
2023/09/04 17:11:11;;;;;;;2.42;1.40;;;;;;;18.31;64.54;101586.78;10443434;28;20068;-69
2023/09/04 17:16:13;;;;;;;3.22;1.58;;;;;;;18.42;64.94;101579.88;10444519;28;20649;-69
2023/09/04 17:21:15;;;;;;;1.73;1.02;;;;;;;18.00;66.02;101583.81;10431920;28;20042;-67
2023/09/04 17:26:18;;;;;;;3.22;1.65;;;;;;;18.14;65.77;101576.31;10431953;28;20049;-68
2023/09/04 17:31:20;;;;;;;3.78;1.27;;;;;;;17.97;66.57;101578.88;10435447;28;20389;-68
2023/09/04 17:36:23;;;;;;;4.13;1.55;;;;;;;17.70;67.13;101585.22;10427691;28;20037;-69
2023/09/04 17:41:25;;;;;;;0.95;0.85;;;;;;;17.93;66.42;101578.69;10443151;28;20056;-68
2023/09/04 17:46:27;;;;;;;2.97;1.30;;;;;;;17.90;65.62;101572.91;10442372;28;20045;-68
2023/09/04 17:51:29;;;;;;;1.65;1.17;;;;;;;17.48;66.54;101574.75;10441485;28;20037;-69
2023/09/04 17:56:33;;;;;;;1.90;1.23;;;;;;;17.54;65.91;101573.56;10403084;28;20040;-69
2023/09/04 18:01:35;;;;;;;2.15;1.38;;;;;;;17.86;64.43;101580.19;10430449;28;20042;-68
2023/09/04 18:06:38;;;;;;;1.40;1.00;;;;;;;17.94;63.16;101562.84;10443020;28;20049;-68
2023/09/04 18:11:40;;;;;;;2.63;1.40;;;;;;;17.50;65.17;101580.81;10410178;28;20061;-68
2023/09/04 18:16:42;;;;;;;2.60;1.40;;;;;;;17.89;64.40;101585.16;10427015;28;20068;-69
2023/09/04 18:21:45;;;;;;;2.80;1.20;;;;;;;17.96;64.35;101577.22;10438326;28;20052;-68
2023/09/04 18:26:47;;;;;;;1.90;1.70;;;;;;;17.93;63.43;101566.75;10442529;28;20061;-68
2023/09/04 18:31:51;;;;;;;4.15;2.40;;;;;;;17.85;63.94;101571.03;10420806;28;20057;-69
2023/09/04 18:36:53;;;;;;;2.78;1.60;;;;;;;17.64;64.39;101565.03;10426268;28;20045;-69
2023/09/04 18:41:55;;;;;;;1.95;1.00;;;;;;;17.43;65.88;101563.75;10422823;28;20072;-69
2023/09/04 18:46:58;;;;;;;2.15;1.40;;;;;;;17.54;65.44;101548.59;10442089;28;20036;-69
2023/09/04 18:52:00;;;;;;;2.05;1.40;;;;;;;17.52;65.45;101545.25;10441520;28;20427;-73
2023/09/04 18:57:02;;;;;;;2.50;1.52;;;;;;;17.64;65.56;101553.09;10440708;28;20056;-72
2023/09/04 19:02:05;;;;;;;1.80;1.30;;;;;;;17.69;65.71;101572.47;10447508;28;20041;-73
2023/09/04 19:07:08;;;;;;;2.78;1.70;;;;;;;17.52;65.64;101566.66;10442173;28;20484;-73
2023/09/04 19:12:11;;;;;;;2.75;1.40;;;;;;;17.52;65.68;101559.13;10441716;28;20101;-70
2023/09/04 19:17:14;;;;;;;2.28;1.50;;;;;;;17.63;65.72;101552.28;10440908;28;20044;-70
2023/09/04 19:22:17;;;;;;;2.25;1.70;;;;;;;17.58;66.29;101543.25;10442181;28;20049;-72
2023/09/04 19:27:23;;;;;;;2.88;1.70;;;;;;;17.36;68.23;101530.88;10440758;28;20516;-71
2023/09/04 19:32:26;;;;;;;1.60;1.50;;;;;;;17.62;67.43;101528.44;10449225;28;20049;-71
2023/09/04 19:37:28;;;;;;;4.20;1.75;;;;;;;17.50;67.80;101519.78;10447941;28;20034;-73
2023/09/04 19:42:31;;;;;;;1.38;1.00;;;;;;;17.30;68.67;101518.19;10446842;28;20057;-69
2023/09/04 19:47:33;;;;;;;3.05;2.00;;;;;;;17.20;69.36;101528.69;10449728;28;20049;-74
2023/09/04 19:52:36;;;;;;;2.08;1.52;;;;;;;17.29;69.23;101524.06;10446604;28;20131;-71
2023/09/04 19:57:41;;;;;;;2.15;1.40;;;;;;;17.34;68.82;101527.56;10393948;28;20049;-71
2023/09/04 20:02:43;;;;;;;1.88;1.50;;;;;;;17.19;69.37;101533.41;10447552;28;20048;-72
2023/09/04 20:07:45;;;;;;;2.95;1.60;;;;;;;17.13;69.62;101532.66;10447940;28;20049;-69
2023/09/04 20:12:47;;;;;;;1.58;1.27;;;;;;;16.98;70.53;101532.06;10444539;28;20053;-68
2023/09/04 20:17:50;;;;;;;4.50;1.40;;;;;;;16.94;70.65;101528.25;10439227;28;20049;-68
2023/09/04 20:22:54;;;;;;;1.63;1.20;;;;;;;16.95;70.95;101519.66;10444568;28;20511;-68
2023/09/04 20:27:56;;;;;;;3.10;1.42;;;;;;;16.98;70.44;101518.22;10444704;28;20049;-67
2023/09/04 20:32:59;;;;;;;1.98;1.20;;;;;;;16.82;71.27;101526.78;10442751;28;20447;-68
2023/09/04 20:38:03;;;;;;;2.22;1.45;;;;;;;16.87;71.63;101532.25;10412659;28;20632;-68
2023/09/04 20:43:06;;;;;;;1.48;1.17;;;;;;;17.25;69.76;101517.47;10440770;28;20045;-68
2023/09/04 20:48:08;;;;;;;2.90;1.15;;;;;;;17.20;70.66;101512.03;10444763;28;20052;-68
2023/09/04 20:53:11;;;;;;;1.70;1.35;;;;;;;17.14;70.44;101512.09;10443888;28;20049;-68
2023/09/04 20:58:14;;;;;;;2.25;1.20;;;;;;;16.93;71.70;101510.00;10446190;28;20042;-68
2023/09/04 21:03:16;;;;;;;1.40;1.10;;;;;;;16.78;72.00;101508.28;10445515;28;20042;-68
2023/09/04 23:22:12;;;;;;;2.40;1.75;;;;;;;16.63;75.45;101494.63;10448818;28;20045;-69
2023/09/04 23:27:15;;;;;;;1.42;1.08;;;;;;;16.54;75.85;101481.47;10449801;28;20389;-68
2023/09/04 23:32:25;;;;;;;1.80;1.38;;;;;;;16.64;75.85;101472.16;10431750;28;20045;-68
2023/09/04 23:37:31;;;;;;;3.40;1.33;;;;;;;16.45;76.43;101468.59;10449520;28;20101;-69
2023/09/04 23:48:07;;;;;;;3.20;1.40;;;;;;;16.01;78.91;101455.94;10448562;28;20159;-68
2023/09/04 23:53:10;;;;;;;1.55;1.35;;;;;;;16.18;78.28;101460.97;10447845;28;20518;-69
2023/09/04 23:58:12;;;;;;;2.10;1.20;;;;;;;16.48;77.23;101454.13;10448053;28;20045;-68
